Time;durP1;ratioP1;P1;durP2;ratioP2;P2;SDS_P1;SDS_P2;PMS_P1;PMS_P2;Temp;Humidity;BMP_temperature;BMP_pressure;BME280_temperature;BME280_humidity;BME280_pressure;Samples;Min_cycle;Max_cycle;Signal;HPM_P1;HPM_P2
2020/12/10 00:03:52;;;;;;;23.18;10.35;;;;;;;-3.03;64.34;101228.97;1741205;81;21015;-61
2020/12/10 00:09:58;;;;;;;21.27;10.48;;;;;;;-2.98;64.44;101220.77;1742197;81;21536;-60
2020/12/10 00:16:03;;;;;;;22.07;8.95;;;;;;;-2.91;64.51;101215.94;1746704;81;21587;-61
2020/12/10 00:22:08;;;;;;;24.67;10.35;;;;;;;-2.91;64.64;101217.25;1747140;81;21007;-60
2020/12/10 00:28:02;;;;;;;21.42;9.45;;;;;;;-2.86;64.83;101220.37;1742130;81;21027;-60
2020/12/10 00:34:07;;;;;;;20.72;9.80;;;;;;;-2.75;64.81;101198.59;1741380;81;21604;-62
2020/12/10 00:40:13;;;;;;;25.57;11.53;;;;;;;-2.72;65.04;101191.34;1745803;81;21169;-60
2020/12/10 00:46:19;;;;;;;22.90;11.35;;;;;;;-2.71;64.88;101190.86;1745767;81;21584;-61
2020/12/10 00:52:25;;;;;;;21.45;10.32;;;;;;;-2.70;64.34;101185.49;1734707;81;21790;-61
2020/12/10 00:58:33;;;;;;;28.35;11.25;;;;;;;-2.72;64.42;101178.70;1742251;80;21592;-60
2020/12/10 01:04:26;;;;;;;28.70;12.33;;;;;;;-2.74;64.58;101177.95;1744656;80;21189;-61
2020/12/10 01:06:54;;;;;;;32.40;13.10;;;;;;;-2.75;64.47;101173.65;1749448;81;20974;-61
2020/12/10 01:09:21;;;;;;;25.68;11.43;;;;;;;-2.77;64.47;101167.69;1746048;80;21113;-62
2020/12/10 01:11:49;;;;;;;34.60;12.13;;;;;;;-2.78;64.38;101171.25;1747376;81;21307;-62
2020/12/10 01:14:18;;;;;;;27.67;11.90;;;;;;;-2.78;64.53;101162.92;1747042;81;21065;-63
2020/12/10 01:16:47;;;;;;;27.10;11.68;;;;;;;-2.77;64.49;101161.12;1746806;80;21002;-59
2020/12/10 01:19:23;;;;;;;25.55;11.38;;;;;;;-2.68;64.30;101163.92;1818315;78;23073;-57
2020/12/10 01:21:51;;;;;;;34.03;13.05;;;;;;;-2.66;64.15;101158.56;1790433;79;21123;-59
2020/12/10 01:24:18;;;;;;;33.40;13.38;;;;;;;-2.61;64.03;101150.34;1788225;79;21377;-58
2020/12/10 01:26:46;;;;;;;30.88;12.53;;;;;;;-2.57;63.60;101143.92;1789138;79;21029;-58
2020/12/10 01:29:14;;;;;;;26.37;11.60;;;;;;;-2.56;63.44;101144.26;1789600;79;20970;-57
2020/12/10 01:31:41;;;;;;;29.42;12.15;;;;;;;-2.55;63.09;101138.06;1789019;79;20993;-57
2020/12/10 01:34:09;;;;;;;26.62;12.37;;;;;;;-2.55;62.97;101143.31;1788746;79;20990;-57
2020/12/10 01:36:36;;;;;;;23.92;9.80;;;;;;;-2.53;62.63;101128.27;1789928;79;21193;-57
2020/12/10 01:39:04;;;;;;;27.62;11.65;;;;;;;-2.51;62.31;101132.95;1790124;79;21030;-58
2020/12/10 01:41:33;;;;;;;26.80;10.50;;;;;;;-2.53;61.76;101131.75;1786176;79;20978;-58
2020/12/10 01:44:07;;;;;;;28.40;11.68;;;;;;;-2.65;61.74;101143.15;1790854;79;21152;-58
2020/12/10 01:46:36;;;;;;;29.87;11.83;;;;;;;-2.65;61.74;101143.15;1789230;79;21022;-59
2020/12/10 01:49:07;;;;;;;26.73;9.73;;;;;;;-2.66;61.83;101150.20;1788192;79;21358;-57
2020/12/10 01:51:35;;;;;;;24.60;9.93;;;;;;;-2.70;62.02;101146.60;1786093;79;21382;-58
2020/12/10 01:54:04;;;;;;;34.80;11.55;;;;;;;-2.76;62.59;101150.52;1785960;79;20986;-58
2020/12/10 01:56:32;;;;;;;30.43;11.68;;;;;;;-2.79;63.30;101158.61;1788799;79;20942;-57
2020/12/10 01:59:00;;;;;;;29.07;11.97;;;;;;;-2.82;64.11;101151.79;1791774;79;21207;-58
2020/12/10 02:01:32;;;;;;;29.63;11.80;;;;;;;-2.91;64.87;101152.95;1790044;79;21177;-56
2020/12/10 02:04:01;;;;;;;26.93;12.03;;;;;;;-2.96;65.49;101148.02;1789167;79;21130;-57
2020/12/10 02:06:29;;;;;;;23.98;11.55;;;;;;;-3.00;66.03;101152.66;1772061;79;21227;-57
2020/12/10 02:08:56;;;;;;;29.85;11.70;;;;;;;-3.06;66.36;101155.73;1757671;80;21195;-58
2020/12/10 02:11:24;;;;;;;24.07;9.70;;;;;;;-3.08;66.37;101162.02;1756075;80;21057;-57
2020/12/10 02:13:53;;;;;;;;;;;;;;;-3.06;66.54;101171.92;1759896;80;21424;-57
2020/12/10 02:16:20;;;;;;;22.67;10.65;;;;;;;-3.07;66.57;101176.83;1757676;80;20235;-60
2020/12/10 02:18:53;;;;;;;22.82;9.98;;;;;;;-3.11;66.72;101169.63;1760409;80;21159;-57
2020/12/10 02:21:22;;;;;;;23.62;10.60;;;;;;;-3.16;66.72;101159.95;1758249;80;21132;-58
2020/12/10 02:23:54;;;;;;;20.92;9.85;;;;;;;-3.12;66.80;101167.12;1754725;80;21136;-58
2020/12/10 02:26:30;;;;;;;30.48;9.80;;;;;;;-3.06;66.79;101170.61;1830223;76;23346;-56
2020/12/10 02:29:00;;;;;;;23.20;10.43;;;;;;;-3.06;66.50;101169.30;1799310;79;20997;-57
2020/12/10 02:31:30;;;;;;;30.15;12.15;;;;;;;-3.06;66.50;101169.30;1799431;79;21365;-57
2020/12/10 02:34:05;;;;;;;26.97;11.45;;;;;;;-3.03;66.44;101156.81;1799263;79;21615;-57
2020/12/10 02:36:34;;;;;;;26.95;13.30;;;;;;;-3.03;66.39;101163.38;1799506;79;21021;-58
2020/12/10 02:39:05;;;;;;;32.47;13.30;;;;;;;-3.00;66.25;101160.53;1798439;79;21551;-57
2020/12/10 02:41:40;;;;;;;24.95;11.48;;;;;;;-2.88;66.01;101161.91;1818677;78;22687;-56
2020/12/10 02:44:08;;;;;;;23.73;11.30;;;;;;;-2.96;65.46;101148.02;1791058;79;21109;-58
2020/12/10 02:46:36;;;;;;;29.00;11.57;;;;;;;-2.96;65.46;101148.02;1788474;79;21159;-57
2020/12/10 02:49:04;;;;;;;30.02;11.40;;;;;;;-3.03;65.71;101162.06;1793672;79;21009;-58
2020/12/10 02:51:32;;;;;;;23.35;10.30;;;;;;;-3.05;65.73;101146.92;1787726;79;21104;-57
2020/12/10 02:54:00;;;;;;;26.65;10.23;;;;;;;-3.11;65.89;101167.02;1788884;79;21045;-58
2020/12/10 02:56:27;;;;;;;25.08;11.45;;;;;;;-3.11;65.89;101167.02;1791329;79;21587;-57
2020/12/10 02:58:55;;;;;;;32.78;11.73;;;;;;;-3.17;66.08;101163.03;1793539;79;21380;-56
2020/12/10 03:01:23;;;;;;;26.17;11.45;;;;;;;-3.19;66.19;101158.38;1787375;79;21168;-59
2020/12/10 03:03:51;;;;;;;31.23;10.55;;;;;;;-3.22;66.35;101159.91;1790246;78;21562;-56
2020/12/10 03:06:19;;;;;;;25.02;11.00;;;;;;;-3.14;66.38;101159.84;1775892;79;20994;-58
2020/12/10 03:08:47;;;;;;;26.05;10.45;;;;;;;-3.06;66.25;101152.25;1765908;80;21120;-58
2020/12/10 03:11:15;;;;;;;29.25;12.98;;;;;;;-3.06;66.25;101152.25;1766438;80;22357;-58
2020/12/10 03:13:42;;;;;;;29.63;12.75;;;;;;;-3.02;66.35;101146.70;1736166;82;21111;-58
2020/12/10 03:16:10;;;;;;;25.97;12.35;;;;;;;-2.92;65.61;101143.39;1705254;84;21068;-59
2020/12/10 03:18:38;;;;;;;28.67;11.35;;;;;;;-2.92;65.15;101146.02;1723592;83;21818;-58
2020/12/10 03:21:06;;;;;;;23.73;11.78;;;;;;;-2.95;64.37;101135.75;1702721;83;21212;-58
2020/12/10 03:23:33;;;;;;;26.20;11.15;;;;;;;-3.01;64.38;101126.53;1704887;84;21389;-58
2020/12/10 03:26:01;;;;;;;25.72;11.38;;;;;;;-3.06;64.04;101129.49;1723190;83;21112;-58
2020/12/10 03:28:28;;;;;;;33.53;14.78;;;;;;;-3.12;64.13;101123.38;1706003;84;21197;-59
2020/12/10 03:30:56;;;;;;;27.87;11.53;;;;;;;-3.13;63.98;101112.52;1713880;83;21186;-59
2020/12/10 03:33:24;;;;;;;25.72;11.50;;;;;;;-3.20;64.02;101117.84;1713950;83;21196;-59
2020/12/10 03:35:51;;;;;;;32.95;12.90;;;;;;;-3.29;64.28;101114.09;1705517;84;21387;-59
2020/12/10 03:38:19;;;;;;;30.85;12.82;;;;;;;-3.33;64.41;101110.00;1705851;84;21099;-59
2020/12/10 03:40:46;;;;;;;36.17;12.58;;;;;;;-3.32;64.56;101107.75;1710214;82;21129;-59
2020/12/10 03:43:14;;;;;;;29.63;13.25;;;;;;;-3.27;64.65;101111.35;1693576;84;21187;-59
2020/12/10 03:45:42;;;;;;;30.45;12.82;;;;;;;-3.21;64.51;101115.70;1687995;84;21223;-58
2020/12/10 03:48:09;;;;;;;33.55;14.07;;;;;;;-3.18;64.46;101110.69;1695476;84;21216;-58
2020/12/10 03:50:37;;;;;;;32.28;13.35;;;;;;;-3.15;64.51;101100.00;1705896;84;21008;-61
2020/12/10 03:53:05;;;;;;;29.42;13.53;;;;;;;-3.10;64.52;101103.11;1754771;81;21007;-61
2020/12/10 03:55:32;;;;;;;32.35;14.15;;;;;;;-3.10;64.59;101101.80;1725483;83;21006;-58
2020/12/10 03:58:00;;;;;;;29.27;13.45;;;;;;;-3.14;64.81;101092.47;1715905;83;21039;-58
2020/12/10 04:00:27;;;;;;;38.10;15.45;;;;;;;-3.22;64.91;101089.58;1757930;81;21423;-61
2020/12/10 04:02:56;;;;;;;32.45;14.43;;;;;;;-3.39;65.65;101092.92;1754496;81;21082;-58
2020/12/10 04:05:24;;;;;;;33.63;13.13;;;;;;;-3.39;65.65;101092.92;1756388;79;20931;-60
2020/12/10 04:07:52;;;;;;;34.90;14.37;;;;;;;-3.46;66.05;101093.47;1756869;81;21053;-58
2020/12/10 04:10:20;;;;;;;35.30;15.53;;;;;;;-3.52;66.23;101089.05;1757127;81;21149;-59
2020/12/10 04:12:47;;;;;;;36.53;13.95;;;;;;;-3.54;66.46;101097.95;1725544;83;21444;-59
2020/12/10 04:15:15;;;;;;;36.17;14.47;;;;;;;-3.59;66.70;101093.49;1715953;83;21148;-59
2020/12/10 04:17:42;;;;;;;41.60;14.10;;;;;;;-3.59;66.70;101093.49;1755481;81;21046;-61
2020/12/10 04:20:10;;;;;;;26.62;12.13;;;;;;;-3.59;66.68;101094.80;1755871;81;21066;-59
2020/12/10 04:22:38;;;;;;;33.33;13.48;;;;;;;-3.62;66.73;101098.95;1756560;80;21066;-58
2020/12/10 04:25:06;;;;;;;39.63;14.35;;;;;;;-3.71;66.79;101092.13;1757664;81;21365;-58
2020/12/10 04:27:33;;;;;;;29.50;12.60;;;;;;;-3.72;66.93;101085.68;1756018;81;21204;-58
2020/12/10 04:30:01;;;;;;;27.13;13.22;;;;;;;-3.72;66.93;101085.68;1755509;81;20940;-58
2020/12/10 04:32:28;;;;;;;30.97;12.73;;;;;;;-3.73;66.97;101075.65;1752839;81;21070;-58
2020/12/10 04:34:56;;;;;;;32.30;12.78;;;;;;;-3.73;66.97;101075.65;1727026;82;21160;-58
2020/12/10 04:37:24;;;;;;;35.20;15.80;;;;;;;-3.70;66.86;101086.40;1702864;84;21364;-59
2020/12/10 04:39:51;;;;;;;32.08;12.73;;;;;;;-3.74;66.87;101086.24;1693736;83;21247;-59
2020/12/10 04:42:20;;;;;;;37.00;13.65;;;;;;;-3.77;66.89;101089.94;1690073;84;20958;-59
2020/12/10 04:44:48;;;;;;;34.08;13.70;;;;;;;-3.77;66.88;101087.31;1756646;81;21565;-59
2020/12/10 04:47:16;;;;;;;30.20;13.68;;;;;;;-3.74;66.79;101088.86;1757596;81;21265;-59
2020/12/10 04:49:43;;;;;;;31.40;12.93;;;;;;;-3.68;66.56;101091.08;1728379;82;21449;-59
2020/12/10 04:52:12;;;;;;;34.92;13.78;;;;;;;-3.68;66.56;101091.08;1711895;83;20971;-59
2020/12/10 04:54:41;;;;;;;28.47;13.22;;;;;;;-3.66;66.60;101094.90;1753767;81;20927;-59
2020/12/10 04:57:12;;;;;;;36.75;16.87;;;;;;;-3.63;66.34;101098.13;1703896;83;21069;-59
2020/12/10 04:59:39;;;;;;;32.00;15.28;;;;;;;-3.60;66.21;101099.70;1715918;83;21111;-59
2020/12/10 05:02:11;;;;;;;44.10;15.95;;;;;;;-3.55;65.85;101097.58;1756783;81;21374;-60
2020/12/10 05:04:47;;;;;;;44.18;17.30;;;;;;;-3.53;65.53;101105.71;1817892;78;22321;-61
2020/12/10 05:07:15;;;;;;;36.68;17.25;;;;;;;-3.58;65.36;101109.14;1779143;79;20950;-59
2020/12/10 05:09:57;;;;;;;28.83;13.32;;;;;;;-3.57;64.96;101103.42;1776555;80;21141;-59
2020/12/10 05:12:24;;;;;;;34.00;14.13;;;;;;;-3.55;64.28;101112.00;1776889;80;20931;-59
2020/12/10 05:14:54;;;;;;;33.75;13.35;;;;;;;-3.60;63.86;101107.57;1776872;80;21002;-58
2020/12/10 05:17:21;;;;;;;41.25;15.20;;;;;;;-3.68;63.87;101101.56;1772074;80;21049;-59
2020/12/10 05:19:57;;;;;;;34.55;14.35;;;;;;;-3.71;63.89;101105.23;1776926;80;20955;-60
2020/12/10 05:22:25;;;;;;;29.05;12.47;;;;;;;-3.74;63.85;101096.73;1775534;80;21146;-59
2020/12/10 05:25:03;;;;;;;37.73;13.75;;;;;;;-3.75;64.03;101100.31;1775354;80;21002;-59
2020/12/10 05:27:32;;;;;;;31.05;13.32;;;;;;;-3.74;64.00;101100.20;1774310;80;21020;-59
2020/12/10 05:30:00;;;;;;;34.80;13.50;;;;;;;-3.72;64.04;101093.06;1775362;80;21156;-58
2020/12/10 05:32:41;;;;;;;36.30;13.53;;;;;;;-3.74;64.05;101088.41;1776694;80;21022;-59
2020/12/10 05:35:24;;;;;;;51.95;14.85;;;;;;;-3.74;64.18;101088.86;1776790;80;21197;-59
2020/12/10 05:37:53;;;;;;;31.62;13.58;;;;;;;-3.74;64.16;101096.27;1775910;80;21034;-59
2020/12/10 05:40:21;;;;;;;32.98;13.88;;;;;;;-3.76;64.20;101095.52;1776716;80;21315;-59
2020/12/10 05:42:51;;;;;;;40.28;16.48;;;;;;;-3.80;64.34;101095.84;1776670;80;21125;-59
2020/12/10 05:45:23;;;;;;;42.83;15.90;;;;;;;-3.79;64.47;101092.30;1776747;80;21029;-60
2020/12/10 05:47:55;;;;;;;48.70;18.27;;;;;;;-3.75;64.54;101085.41;1775860;80;21452;-58
2020/12/10 05:50:30;;;;;;;58.73;20.15;;;;;;;-3.73;64.55;101094.48;1776597;80;21022;-60
2020/12/10 05:53:12;;;;;;;55.60;20.62;;;;;;;-3.73;64.86;101094.48;1771968;80;21686;-58
2020/12/10 05:55:42;;;;;;;53.25;19.73;;;;;;;-3.73;64.86;101094.48;1776585;80;21614;-58
2020/12/10 05:58:11;;;;;;;53.85;20.25;;;;;;;-3.64;65.01;101099.55;1776653;80;20962;-61
2020/12/10 06:00:39;;;;;;;43.95;17.73;;;;;;;-3.64;65.01;101099.55;1777001;80;21372;-60
2020/12/10 06:03:06;;;;;;;44.77;19.05;;;;;;;-3.60;64.96;101100.53;1776901;80;21590;-58
2020/12/10 06:05:34;;;;;;;42.23;16.40;;;;;;;-3.57;65.03;101096.86;1783278;79;21065;-58
2020/12/10 06:08:08;;;;;;;44.13;17.32;;;;;;;-3.56;65.02;101092.00;1729052;80;21001;-59
2020/12/10 06:10:40;;;;;;;41.00;16.97;;;;;;;-3.52;65.07;101092.12;1783085;80;21069;-60
2020/12/10 06:13:10;;;;;;;42.15;16.75;;;;;;;-3.44;65.08;101085.05;1783119;80;21192;-59
2020/12/10 06:15:37;;;;;;;;;;;;;;;-3.37;65.01;101079.73;1781614;80;21124;-58
2020/12/10 06:18:13;;;;;;;37.58;16.70;;;;;;;-3.28;64.92;101085.61;1782449;80;20132;-59
2020/12/10 06:20:44;;;;;;;37.88;15.28;;;;;;;-3.28;64.87;101087.38;1780189;80;21013;-58
2020/12/10 06:26:27;;;;;;;41.98;17.70;;;;;;;-3.23;65.11;101080.03;1826150;78;22407;-58
2020/12/10 06:29:31;;;;;;;43.98;17.02;;;;;;;-3.24;65.08;101076.58;1799250;79;21132;-59
2020/12/10 06:32:15;;;;;;;51.30;18.55;;;;;;;-3.16;65.02;101073.39;1801616;79;21376;-59
2020/12/10 06:34:55;;;;;;;42.10;18.20;;;;;;;-3.12;64.99;101072.68;1799920;79;21026;-58
2020/12/10 06:37:26;;;;;;;46.40;17.35;;;;;;;-3.06;65.00;101067.84;1801222;79;21052;-58
2020/12/10 06:40:03;;;;;;;46.50;17.37;;;;;;;-3.06;65.00;101067.84;1799911;79;21049;-58
2020/12/10 06:42:46;;;;;;;48.28;18.73;;;;;;;-2.99;64.98;101069.52;1797780;79;20989;-60
2020/12/10 06:45:36;;;;;;;40.35;17.87;;;;;;;-2.91;64.85;101075.53;1797095;79;21439;-58
2020/12/10 06:48:08;;;;;;;40.00;17.90;;;;;;;-2.87;64.71;101079.58;1793481;79;21034;-57
2020/12/10 06:50:39;;;;;;;58.65;25.68;;;;;;;-3.00;65.09;101081.81;1793415;79;21084;-58
2020/12/10 06:53:22;;;;;;;42.83;20.30;;;;;;;-3.01;65.32;101070.95;1801074;79;22201;-58
2020/12/10 06:56:02;;;;;;;46.85;20.65;;;;;;;-3.03;65.54;101074.66;1798679;79;21091;-58
2020/12/10 06:58:43;;;;;;;43.65;18.52;;;;;;;-3.03;65.54;101074.66;1799852;79;22262;-60
2020/12/10 07:01:40;;;;;;;45.95;18.65;;;;;;;-3.02;65.83;101068.44;1799628;79;21116;-57
2020/12/10 07:07:20;;;;;;;38.05;18.45;;;;;;;-2.90;66.16;101068.86;1810889;78;22319;-59
2020/12/10 07:12:40;;;;;;;46.33;18.42;;;;;;;-2.85;66.31;101048.83;1818849;77;22471;-57
2020/12/10 07:15:27;;;;;;;42.93;18.20;;;;;;;-2.87;66.42;101051.58;1790344;79;20971;-58
2020/12/10 07:17:57;;;;;;;41.35;17.90;;;;;;;-2.85;66.47;101044.41;1790134;79;21366;-60
2020/12/10 07:20:26;;;;;;;53.02;21.60;;;;;;;-2.79;66.60;101046.23;1791140;79;21018;-58
2020/12/10 07:22:54;;;;;;;52.80;21.23;;;;;;;-2.73;66.59;101053.16;1789706;79;21061;-58
2020/12/10 07:25:22;;;;;;;50.17;19.50;;;;;;;-2.65;66.61;101059.14;1786508;79;20993;-59
2020/12/10 07:27:51;;;;;;;47.25;19.90;;;;;;;-2.67;66.70;101058.42;1786490;79;26212;-59
2020/12/10 07:30:23;;;;;;;51.00;21.73;;;;;;;-2.67;66.90;101057.94;1791822;79;21343;-58
2020/12/10 07:32:52;;;;;;;41.25;17.48;;;;;;;-2.66;67.07;101058.31;1790455;79;21160;-58
2020/12/10 07:35:35;;;;;;;49.65;20.62;;;;;;;-2.60;67.24;101053.56;1789974;79;21653;-59
2020/12/10 07:38:15;;;;;;;54.83;20.00;;;;;;;-2.56;67.40;101042.71;1790461;79;20998;-59
2020/12/10 07:40:43;;;;;;;50.05;17.65;;;;;;;-2.56;67.84;101061.55;1787824;79;20990;-60
2020/12/10 07:43:11;;;;;;;47.40;18.27;;;;;;;-2.59;68.08;101058.70;1790309;79;21196;-58
2020/12/10 07:45:39;;;;;;;47.83;18.73;;;;;;;-2.57;68.27;101049.39;1790729;79;21618;-58
2020/12/10 07:48:06;;;;;;;45.03;17.57;;;;;;;-2.56;68.49;101037.91;1789398;79;21156;-58
2020/12/10 07:53:11;;;;;;;39.73;16.17;;;;;;;-2.52;69.18;101024.47;1823392;78;22522;-59
2020/12/10 07:55:54;;;;;;;54.18;19.73;;;;;;;-2.57;69.41;101030.52;1799431;79;20942;-59
2020/12/10 07:58:53;;;;;;;44.65;16.80;;;;;;;-2.54;69.69;101024.21;1782432;79;22267;-58
2020/12/10 08:01:21;;;;;;;49.75;18.87;;;;;;;-2.56;70.10;101005.09;1801393;79;21037;-59
2020/12/10 08:03:53;;;;;;;52.05;19.02;;;;;;;-2.59;70.56;101000.94;1795278;79;20970;-60
2020/12/10 08:06:21;;;;;;;50.40;20.12;;;;;;;-2.63;70.87;100998.18;1790054;79;21133;-59
2020/12/10 08:08:59;;;;;;;49.48;19.12;;;;;;;-2.62;71.17;100997.69;1778730;80;21009;-58
2020/12/10 08:11:20;;;;;;;54.88;18.65;;;;;;;-2.58;71.51;100999.14;1777968;80;21634;-58
2020/12/10 08:14:08;;;;;;;50.10;20.62;;;;;;;-2.56;71.70;100991.52;1769773;80;20993;-59
2020/12/10 08:16:45;;;;;;;51.73;18.80;;;;;;;-2.53;72.03;100995.67;1826347;78;22476;-59
2020/12/10 08:19:21;;;;;;;45.52;18.25;;;;;;;-2.60;72.49;100998.43;1797059;79;21061;-58
2020/12/10 08:21:50;;;;;;;51.37;20.60;;;;;;;-2.62;72.87;100995.06;1796766;79;21252;-59
2020/12/10 08:24:36;;;;;;;45.67;19.45;;;;;;;-2.64;73.20;100986.00;1802770;79;21037;-60
2020/12/10 08:27:05;;;;;;;49.63;19.67;;;;;;;-2.62;73.39;100977.55;1799228;79;21018;-59
2020/12/10 08:29:32;;;;;;;;;;;;;;;-2.60;73.38;100976.94;1807439;79;21245;-58
2020/12/10 08:32:11;;;;;;;55.58;22.45;;;;;;;-2.54;73.66;100988.77;1799527;79;20145;-60
2020/12/10 08:34:39;;;;;;;56.05;19.37;;;;;;;-2.54;73.72;100981.72;1800740;79;21364;-59
2020/12/10 08:37:10;;;;;;;44.18;17.40;;;;;;;-2.51;73.91;100991.16;1803218;79;21100;-59
2020/12/10 08:39:39;;;;;;;53.80;21.77;;;;;;;-2.45;73.97;100995.92;1797812;79;21077;-59
2020/12/10 08:42:07;;;;;;;50.12;20.37;;;;;;;-2.39;74.13;101014.32;1804790;79;22355;-57
2020/12/10 08:44:47;;;;;;;56.03;20.50;;;;;;;-2.41;74.22;101002.63;1799696;79;21104;-58
2020/12/10 08:47:24;;;;;;;46.05;19.15;;;;;;;-2.44;74.38;100986.25;1797970;79;21363;-60
2020/12/10 08:50:23;;;;;;;56.45;21.80;;;;;;;-2.43;74.50;100987.44;1801301;79;21060;-58
2020/12/10 08:53:05;;;;;;;40.95;19.23;;;;;;;-2.41;74.41;100982.92;1747177;82;21447;-58
2020/12/10 08:55:41;;;;;;;49.05;19.87;;;;;;;-2.40;73.72;100971.48;1766348;79;21098;-61
2020/12/10 08:58:19;;;;;;;45.12;17.52;;;;;;;-2.45;73.40;100991.16;1773568;79;20956;-59
2020/12/10 09:00:49;;;;;;;47.43;18.17;;;;;;;-2.54;73.33;100975.64;1748592;81;21381;-58
2020/12/10 09:03:16;;;;;;;46.85;17.95;;;;;;;-2.61;73.46;100983.13;1769024;80;21120;-58
2020/12/10 09:05:45;;;;;;;50.73;18.48;;;;;;;-2.63;73.44;100974.55;1772665;79;21592;-58
2020/12/10 09:08:13;;;;;;;60.50;21.20;;;;;;;-2.66;73.48;100976.10;1785332;79;21480;-58
2020/12/10 09:10:41;;;;;;;51.08;20.08;;;;;;;-2.69;73.55;100971.91;1763475;80;21153;-60
2020/12/10 09:13:09;;;;;;;45.67;18.95;;;;;;;-2.68;73.59;100985.41;1768242;80;21377;-59
2020/12/10 09:15:39;;;;;;;51.13;18.65;;;;;;;-2.65;73.56;100971.19;1749095;80;21193;-58
2020/12/10 09:18:07;;;;;;;42.95;17.62;;;;;;;-2.67;73.52;100969.17;1759651;81;21026;-58
2020/12/10 09:20:35;;;;;;;50.28;20.05;;;;;;;-2.65;73.52;100980.38;1747376;80;21181;-58
2020/12/10 09:23:02;;;;;;;45.98;19.48;;;;;;;-2.68;73.31;100966.17;1764208;79;21078;-57
2020/12/10 09:25:30;;;;;;;60.40;21.77;;;;;;;-2.68;73.31;100966.17;1754544;80;21343;-59
2020/12/10 09:27:57;;;;;;;59.93;20.90;;;;;;;-2.72;73.44;100958.20;1762148;81;21161;-59
2020/12/10 09:30:25;;;;;;;67.10;23.83;;;;;;;-2.72;73.45;100949.84;1747825;81;21205;-58
2020/12/10 09:32:54;;;;;;;57.43;23.25;;;;;;;-2.71;73.45;100963.78;1781584;79;21615;-60
2020/12/10 09:35:22;;;;;;;53.20;20.85;;;;;;;-2.71;73.40;100968.58;1762373;79;21125;-58
2020/12/10 09:37:49;;;;;;;51.42;20.72;;;;;;;-2.67;73.29;100970.00;1751915;81;21393;-60
2020/12/10 09:40:17;;;;;;;53.20;23.20;;;;;;;-2.62;73.20;100976.23;1750171;80;21038;-59
2020/12/10 09:42:46;;;;;;;61.98;21.95;;;;;;;-2.63;73.12;100985.54;1760539;81;21133;-58
2020/12/10 09:45:15;;;;;;;50.40;21.10;;;;;;;-2.68;73.22;100971.42;1746049;81;21011;-59
2020/12/10 09:47:45;;;;;;;47.83;19.73;;;;;;;-2.72;73.31;100966.08;1747792;81;21087;-59
2020/12/10 09:58:04;;;;;;;43.98;18.57;;;;;;;-2.78;73.60;100973.94;1751185;81;21058;-59
2020/12/10 10:00:33;;;;;;;50.12;21.17;;;;;;;-2.77;73.70;100963.77;1758459;80;21169;-59
2020/12/10 10:03:05;;;;;;;53.87;21.93;;;;;;;-2.73;73.76;100968.33;1750935;80;21215;-58
2020/12/10 10:05:33;;;;;;;50.05;21.20;;;;;;;-2.70;73.83;100968.09;1775476;79;21168;-57
2020/12/10 10:08:01;;;;;;;54.15;22.58;;;;;;;-2.69;73.90;100969.77;1757763;81;21145;-59
2020/12/10 10:10:29;;;;;;;54.77;21.55;;;;;;;-2.72;74.05;100982.65;1751872;80;21182;-58
2020/12/10 10:12:57;;;;;;;53.05;22.17;;;;;;;-2.68;74.03;100961.78;1758050;81;21153;-59
2020/12/10 10:15:24;;;;;;;56.83;24.80;;;;;;;-2.65;74.05;100956.75;1746927;80;21368;-58
2020/12/10 10:17:52;;;;;;;51.08;22.30;;;;;;;-2.60;73.94;100963.81;1807856;78;21030;-60
2020/12/10 10:20:20;;;;;;;54.58;23.05;;;;;;;-2.57;73.91;100945.68;1810605;78;21544;-59
2020/12/10 10:22:47;;;;;;;53.60;20.90;;;;;;;-2.53;73.78;100949.72;1796459;78;21110;-60
2020/12/10 10:25:15;;;;;;;54.60;20.70;;;;;;;-2.52;73.77;100944.83;1811857;78;21157;-58
2020/12/10 10:27:44;;;;;;;55.30;21.55;;;;;;;-2.50;73.81;100942.45;1811001;78;21201;-58
2020/12/10 10:30:12;;;;;;;55.85;22.30;;;;;;;-2.51;73.93;100967.03;1807276;78;20952;-63
2020/12/10 10:32:39;;;;;;;50.85;20.77;;;;;;;-2.52;74.03;100933.02;1807842;78;21101;-61
2020/12/10 10:35:07;;;;;;;51.10;18.93;;;;;;;-2.53;74.01;100936.59;1807375;78;21132;-58
2020/12/10 10:37:35;;;;;;;57.05;20.52;;;;;;;-2.55;74.07;100947.70;1807772;78;21349;-57
2020/12/10 10:40:02;;;;;;;38.05;17.25;;;;;;;-2.57;74.01;100934.69;1809725;78;21365;-58
2020/12/10 10:42:33;;;;;;;49.38;18.45;;;;;;;-2.60;74.05;100931.48;1808464;78;21810;-59
2020/12/10 10:45:01;;;;;;;;;;;;;;;-2.60;73.95;100926.23;1808897;78;21050;-59
2020/12/10 10:47:29;;;;;;;49.63;19.52;;;;;;;-2.65;73.96;100931.81;1805636;78;20146;-59
2020/12/10 10:49:57;;;;;;;44.05;19.32;;;;;;;-2.70;73.92;100928.72;1808543;78;26316;-60
2020/12/10 10:52:25;;;;;;;43.92;16.60;;;;;;;-2.72;73.99;100930.64;1801590;78;21211;-60
2020/12/10 10:54:53;;;;;;;52.98;18.80;;;;;;;-2.76;74.12;100928.70;1792408;79;20938;-60
2020/12/10 10:57:20;;;;;;;45.45;19.70;;;;;;;-2.75;73.96;100923.83;1792523;77;21472;-59
2020/12/10 10:59:48;;;;;;;40.23;19.52;;;;;;;-2.75;73.96;100923.83;1799610;78;21094;-58
2020/12/10 11:02:16;;;;;;;49.83;19.10;;;;;;;-2.74;73.96;100926.82;1790659;79;21183;-59
2020/12/10 11:04:44;;;;;;;41.40;17.33;;;;;;;-2.73;74.05;100929.78;1793689;79;22275;-59
2020/12/10 11:07:11;;;;;;;48.60;20.00;;;;;;;-2.70;74.01;100922.98;1794957;79;21166;-59
2020/12/10 11:09:39;;;;;;;56.37;22.22;;;;;;;-2.67;73.85;100941.12;1786687;79;21025;-59
2020/12/10 11:12:07;;;;;;;45.23;20.40;;;;;;;-2.69;73.85;100943.52;1750310;80;21169;-59
2020/12/10 11:14:37;;;;;;;54.65;21.10;;;;;;;-2.70;73.75;100938.73;1790029;79;21047;-59
2020/12/10 11:17:05;;;;;;;46.55;19.50;;;;;;;-2.74;73.76;100940.40;1768484;79;21264;-60
2020/12/10 11:19:33;;;;;;;44.75;18.30;;;;;;;-2.74;73.82;100939.95;1754666;81;20907;-59
2020/12/10 11:22:01;;;;;;;40.73;16.80;;;;;;;-2.69;73.70;100928.59;1769094;81;21002;-60
2020/12/10 11:24:28;;;;;;;59.00;20.08;;;;;;;-2.66;73.65;100934.09;1756955;81;21139;-59
2020/12/10 11:26:56;;;;;;;44.88;18.77;;;;;;;-2.68;73.24;100925.03;1753647;81;21145;-59
2020/12/10 11:29:24;;;;;;;42.95;18.82;;;;;;;-2.68;73.24;100925.03;1769091;81;21270;-59
2020/12/10 11:31:53;;;;;;;49.25;19.37;;;;;;;-2.66;73.31;100930.98;1754653;81;20976;-59
2020/12/10 11:34:21;;;;;;;40.73;17.37;;;;;;;-2.63;73.28;100923.84;1781421;79;21489;-58
2020/12/10 11:36:50;;;;;;;41.73;16.50;;;;;;;-2.63;73.28;100935.17;1756054;81;21577;-60
2020/12/10 11:39:17;;;;;;;38.78;17.27;;;;;;;-2.63;73.26;100926.47;1757521;81;21157;-60
2020/12/10 11:41:45;;;;;;;48.55;17.87;;;;;;;-2.65;73.39;100914.74;1753799;81;23548;-59
2020/12/10 11:44:13;;;;;;;44.48;18.37;;;;;;;-2.66;73.49;100917.86;1772759;80;21172;-61
2020/12/10 11:46:41;;;;;;;42.58;17.98;;;;;;;-2.61;73.48;100920.61;1762225;80;21081;-65
2020/12/10 11:49:10;;;;;;;48.80;18.53;;;;;;;-2.59;73.35;100918.23;1763785;81;21067;-63
2020/12/10 11:51:37;;;;;;;42.62;20.08;;;;;;;-2.61;73.45;100928.00;1755719;81;21034;-62
2020/12/10 11:54:05;;;;;;;44.18;17.35;;;;;;;-2.58;73.37;100925.13;1780859;79;21390;-63
2020/12/10 11:56:33;;;;;;;43.98;17.77;;;;;;;-2.65;73.47;100912.12;1765643;80;21236;-63
2020/12/10 11:59:00;;;;;;;47.00;19.62;;;;;;;-2.65;73.66;100905.55;1751826;81;21049;-64
2020/12/10 12:01:28;;;;;;;47.13;18.70;;;;;;;-2.58;73.53;100923.00;1751998;81;21118;-63
2020/12/10 12:03:56;;;;;;;47.73;19.15;;;;;;;-2.53;73.45;100914.27;1759460;81;21119;-63
2020/12/10 12:06:23;;;;;;;50.40;20.72;;;;;;;-2.61;73.51;100914.05;1758022;81;21481;-62
2020/12/10 12:08:51;;;;;;;45.58;19.48;;;;;;;-2.61;73.51;100914.05;1751295;81;21085;-63
2020/12/10 12:11:25;;;;;;;41.92;18.52;;;;;;;-2.69;73.74;100911.53;1754854;81;21034;-63
2020/12/10 12:13:53;;;;;;;44.98;17.80;;;;;;;-2.59;73.91;100923.48;1753489;81;21047;-63
2020/12/10 12:16:21;;;;;;;44.48;17.07;;;;;;;-2.59;73.91;100923.48;1747418;81;21078;-63
2020/12/10 12:18:50;;;;;;;57.58;22.73;;;;;;;-2.58;73.78;100909.38;1742455;82;21391;-63
2020/12/10 12:21:27;;;;;;;52.57;21.87;;;;;;;-2.58;73.83;100908.55;1792368;79;21077;-63
2020/12/10 12:23:55;;;;;;;52.48;22.10;;;;;;;-2.60;73.93;100912.61;1790503;79;21232;-63